Time;durP1;ratioP1;P1;durP2;ratioP2;P2;SDS_P1;SDS_P2;PMS_P1;PMS_P2;Temp;Humidity;BMP_temperature;BMP_pressure;BME280_temperature;BME280_humidity;BME280_pressure;Samples;Min_cycle;Max_cycle;Signal;HPM_P1;HPM_P2
2021/11/01 00:03:55;;;;;;;15.47;12.83;;;10.20;38.50;;;;;;10464913;28;20789;-70
2021/11/01 00:09:00;;;;;;;16.50;14.90;;;10.20;38.40;;;;;;10458251;28;20719;-70
2021/11/01 00:14:03;;;;;;;15.20;13.70;;;10.30;38.70;;;;;;10465638;28;20235;-70
2021/11/01 00:19:06;;;;;;;15.13;13.53;;;10.30;38.50;;;;;;10464777;28;20319;-70
2021/11/01 00:24:11;;;;;;;13.93;12.30;;;10.30;38.50;;;;;;10459642;28;20770;-70
2021/11/01 00:29:15;;;;;;;14.37;12.87;;;10.40;38.50;;;;;;10464567;28;20237;-70
2021/11/01 00:34:19;;;;;;;15.40;13.87;;;10.30;38.10;;;;;;10461339;28;20225;-70
2021/11/01 00:39:24;;;;;;;12.97;11.63;;;10.30;38.20;;;;;;10463271;28;20229;-70
2021/11/01 00:44:28;;;;;;;15.80;14.20;;;10.20;38.40;;;;;;10463458;28;20393;-70
2021/11/01 00:49:31;;;;;;;14.47;13.07;;;10.20;38.40;;;;;;10465275;28;20236;-69
2021/11/01 00:54:36;;;;;;;15.20;13.80;;;10.30;38.30;;;;;;10465351;28;20708;-69
2021/11/01 00:59:39;;;;;;;14.73;13.33;;;10.20;38.50;;;;;;10456855;28;20224;-69
2021/11/01 01:04:42;;;;;;;15.60;14.07;;;10.20;38.30;;;;;;10460172;28;20228;-69
2021/11/01 01:09:49;;;;;;;16.43;14.83;;;10.20;38.40;;;;;;10461469;28;20220;-69
2021/11/01 01:14:56;;;;;;;14.17;12.53;;;10.20;38.60;;;;;;10463818;28;20774;-71
2021/11/01 01:20:05;;;;;;;16.33;14.57;;;10.20;38.60;;;;;;10461250;28;20240;-71
2021/11/01 01:25:38;;;;;;;14.00;12.70;;;10.10;38.30;;;;;;10462036;28;20851;-71
2021/11/01 01:30:45;;;;;;;15.50;13.90;;;10.00;38.80;;;;;;10460172;28;20221;-71
2021/11/01 01:35:48;;;;;;;18.50;16.60;;;10.00;38.50;;;;;;10461928;28;20219;-71
2021/11/01 01:40:54;;;;;;;17.60;15.80;;;9.90;39.50;;;;;;10466622;28;20228;-71
2021/11/01 01:45:57;;;;;;;15.83;14.23;;;9.90;39.80;;;;;;10464481;28;20220;-71
2021/11/01 01:51:01;;;;;;;15.53;14.03;;;9.90;39.70;;;;;;10463628;28;20221;-71
2021/11/01 01:56:07;;;;;;;17.83;16.03;;;9.90;39.80;;;;;;10460103;28;20683;-72
2021/11/01 02:01:12;;;;;;;18.87;15.87;;;9.90;40.10;;;;;;10459332;28;20247;-69
2021/11/01 02:06:22;;;;;;;18.90;17.10;;;9.90;39.80;;;;;;10461714;28;20503;-69
2021/11/01 02:11:34;;;;;;;20.80;18.80;;;9.90;39.90;;;;;;10461912;28;20560;-69
2021/11/01 02:16:38;;;;;;;20.10;18.23;;;9.90;40.50;;;;;;10461808;28;20238;-69
2021/11/01 02:21:49;;;;;;;18.07;16.17;;;9.80;39.90;;;;;;10464580;28;20278;-69
2021/11/01 02:26:54;;;;;;;17.40;15.60;;;9.70;40.60;;;;;;10465916;28;20239;-69
2021/11/01 02:31:57;;;;;;;19.23;17.43;;;9.80;40.60;;;;;;10463502;28;21002;-69
2021/11/01 02:37:01;;;;;;;16.03;14.43;;;9.80;40.40;;;;;;10458350;28;20225;-69
2021/11/01 02:42:06;;;;;;;16.80;15.20;;;9.80;40.40;;;;;;10452439;28;20600;-69
2021/11/01 02:47:10;;;;;;;18.17;16.30;;;9.80;40.80;;;;;;10442554;28;20272;-69
2021/11/01 02:52:13;;;;;;;16.63;15.03;;;9.80;40.20;;;;;;10418182;28;20604;-69
2021/11/01 02:57:18;;;;;;;16.43;14.80;;;9.80;40.30;;;;;;10419011;28;20229;-69
2021/11/01 03:02:21;;;;;;;19.30;17.40;;;9.80;40.50;;;;;;10418431;28;21235;-70
2021/11/01 03:07:25;;;;;;;18.50;16.70;;;9.80;40.20;;;;;;10415745;28;20252;-70
2021/11/01 03:12:30;;;;;;;17.23;15.53;;;9.70;40.10;;;;;;10412899;28;20224;-70
2021/11/01 03:17:37;;;;;;;18.77;16.70;;;9.60;40.50;;;;;;10449540;28;20220;-67
2021/11/01 03:22:43;;;;;;;17.83;15.93;;;9.60;40.50;;;;;;10435313;28;20603;-67
2021/11/01 03:27:50;;;;;;;16.63;14.93;;;9.60;40.50;;;;;;10418823;28;20221;-67
2021/11/01 03:32:53;;;;;;;18.20;16.30;;;9.60;40.50;;;;;;10418128;28;20239;-67
2021/11/01 03:37:58;;;;;;;18.13;16.23;;;9.60;40.50;;;;;;10415879;28;20221;-68
2021/11/01 03:43:05;;;;;;;17.57;15.83;;;9.50;40.50;;;;;;10424972;28;20221;-69
2021/11/01 03:48:09;;;;;;;17.87;16.07;;;9.60;40.50;;;;;;10428141;28;20225;-67
2021/11/01 03:53:13;;;;;;;18.13;16.27;;;9.50;40.50;;;;;;10451712;28;20236;-67
2021/11/01 03:58:17;;;;;;;16.83;15.17;;;9.50;40.50;;;;;;10462305;28;20228;-67
2021/11/01 04:03:22;;;;;;;17.83;16.10;;;9.50;40.50;;;;;;10467945;28;20246;-67
2021/11/01 04:08:25;;;;;;;17.97;16.07;;;9.50;40.50;;;;;;10465625;28;20239;-67
2021/11/01 04:13:30;;;;;;;17.97;16.10;;;9.40;40.40;;;;;;10461468;28;20232;-67
2021/11/01 04:18:39;;;;;;;18.30;16.40;;;9.40;40.40;;;;;;10462184;28;20233;-70
2021/11/01 04:23:43;;;;;;;17.43;15.77;;;9.40;40.40;;;;;;10465034;28;20303;-70
2021/11/01 04:28:47;;;;;;;18.60;16.83;;;9.40;40.40;;;;;;10421305;28;20230;-69
2021/11/01 04:33:53;;;;;;;16.07;14.50;;;9.30;40.30;;;;;;10439585;28;20238;-69
2021/11/01 04:39:03;;;;;;;16.57;14.87;;;9.30;40.30;;;;;;10462428;28;20224;-72
2021/11/01 04:54:46;;;;;;;17.13;15.43;;;9.20;40.20;;;;;;10422728;28;20225;-72
2021/11/01 04:59:50;;;;;;;15.17;13.77;;;9.20;40.20;;;;;;10424062;28;20591;-70
2021/11/01 05:04:54;;;;;;;16.27;14.77;;;9.20;40.20;;;;;;10422253;28;20599;-69
2021/11/01 05:10:02;;;;;;;15.30;13.80;;;9.10;40.10;;;;;;10419221;28;20233;-69
2021/11/01 05:15:10;;;;;;;16.13;14.57;;;9.20;40.20;;;;;;10422219;28;20221;-69
2021/11/01 05:20:18;;;;;;;15.73;14.17;;;9.20;40.20;;;;;;10419570;28;21005;-71
2021/11/01 05:25:25;;;;;;;15.57;14.07;;;9.20;40.20;;;;;;10423145;28;20228;-71
2021/11/01 05:30:33;;;;;;;16.70;15.03;;;9.20;40.20;;;;;;10435754;28;20616;-71
2021/11/01 05:35:37;;;;;;;17.43;15.63;;;9.20;40.20;;;;;;10462121;28;20228;-71
2021/11/01 05:40:40;;;;;;;17.87;16.07;;;9.10;40.10;;;;;;10459413;28;20233;-70
2021/11/01 05:45:45;;;;;;;16.77;15.10;;;9.00;40.10;;;;;;10457962;28;20691;-71
2021/11/01 05:50:48;;;;;;;16.30;14.63;;;9.00;40.10;;;;;;10458830;28;20228;-71
2021/11/01 05:55:57;;;;;;;16.63;14.97;;;8.90;40.00;;;;;;10441587;28;20769;-71
2021/11/01 06:01:22;;;;;;;15.60;14.03;;;8.90;40.20;;;;;;10415799;28;20236;-70
2021/11/01 06:06:40;;;;;;;21.90;19.70;;;8.90;41.00;;;;;;10420880;28;20623;-71
2021/11/01 06:17:06;;;;;;;24.60;22.00;;;8.90;41.30;;;;;;10424231;28;20235;-73
2021/11/01 06:22:10;;;;;;;26.63;23.80;;;8.80;41.80;;;;;;10414651;28;20729;-73
2021/11/01 06:27:15;;;;;;;28.70;25.47;;;8.80;41.70;;;;;;10413029;28;20244;-73
2021/11/01 06:32:30;;;;;;;27.40;24.57;;;8.70;41.80;;;;;;10417447;28;20229;-73
2021/11/01 06:43:04;;;;;;;31.47;27.90;;;8.80;42.50;;;;;;10421401;28;20225;-73
2021/11/01 06:54:13;;;;;;;26.40;23.67;;;9.10;43.40;;;;;;10426190;28;20611;-73
2021/11/01 07:15:31;;;;;;;25.30;22.80;;;9.40;43.20;;;;;;10455011;28;20223;-73
2021/11/01 07:20:47;;;;;;;26.70;23.97;;;9.40;43.10;;;;;;10460670;28;20712;-73
2021/11/01 08:25:24;;;;;;;24.30;21.83;;;10.30;43.10;;;;;;10464814;28;20647;-71
2021/11/01 08:36:23;;;;;;;20.10;18.00;;;10.50;43.20;;;;;;10456117;28;20236;-71
2021/11/01 08:41:42;;;;;;;21.53;19.43;;;10.60;43.30;;;;;;10453975;28;20672;-71
2021/11/01 09:18:54;;;;;;;17.80;16.00;;;11.50;45.60;;;;;;10439270;28;20610;-71
2021/11/01 09:24:17;;;;;;;25.50;23.00;;;11.70;45.20;;;;;;10462919;28;20236;-71
2021/11/01 09:29:29;;;;;;;18.03;16.23;;;11.80;45.50;;;;;;10455485;28;20318;-67
2021/11/01 09:45:18;;;;;;;8.87;7.97;;;12.40;45.50;;;;;;10467065;28;20232;-70
2021/11/01 09:50:24;;;;;;;6.40;5.80;;;12.50;45.20;;;;;;10474664;28;20236;-71
2021/11/01 09:55:47;;;;;;;8.30;7.30;;;12.70;44.90;;;;;;10467632;28;20649;-71
2021/11/01 10:00:51;;;;;;;7.20;6.17;;;12.80;45.40;;;;;;10460203;28;20224;-70
2021/11/01 10:05:57;;;;;;;5.80;5.30;;;12.90;44.50;;;;;;10471953;28;20339;-73
2021/11/01 10:11:01;;;;;;;6.73;6.03;;;13.00;44.40;;;;;;10463989;28;20721;-72
2021/11/01 10:21:27;;;;;;;5.80;5.07;;;13.20;44.40;;;;;;10461817;28;20951;-67
2021/11/01 10:26:30;;;;;;;5.27;4.80;;;13.30;44.30;;;;;;10463966;28;20220;-67
2021/11/01 10:31:45;;;;;;;4.30;3.90;;;13.40;43.90;;;;;;10457581;28;20225;-67
2021/11/01 10:36:50;;;;;;;5.07;4.07;;;13.40;44.70;;;;;;10454339;28;20239;-70
2021/11/01 10:41:57;;;;;;;4.90;3.80;;;13.40;43.80;;;;;;10454074;28;20220;-67
2021/11/01 11:14:22;;;;;;;4.67;4.20;;;13.50;43.80;;;;;;10470419;28;20594;-68
2021/11/01 11:19:37;;;;;;;5.10;4.60;;;13.50;43.80;;;;;;10470246;28;20227;-67
2021/11/01 11:30:31;;;;;;;4.50;3.67;;;13.50;43.90;;;;;;10415636;28;20330;-67
2021/11/01 11:52:01;;;;;;;10.97;8.03;;;13.60;44.30;;;;;;10466335;28;20239;-71
2021/11/01 11:57:18;;;;;;;10.10;7.53;;;13.60;45.00;;;;;;10454362;28;20764;-72
2021/11/01 12:02:35;;;;;;;5.07;3.80;;;13.70;45.10;;;;;;10447701;28;20231;-72
2021/11/01 12:08:07;;;;;;;2.63;2.40;;;13.70;45.10;;;;;;10462136;28;20240;-72
2021/11/01 12:13:25;;;;;;;4.50;3.80;;;13.70;45.40;;;;;;10463250;28;20238;-72
2021/11/01 12:18:29;;;;;;;4.97;4.03;;;13.80;45.40;;;;;;10470591;28;20232;-72
2021/11/01 12:23:40;;;;;;;3.27;2.97;;;13.90;46.60;;;;;;10461144;28;20239;-67
2021/11/01 12:28:44;;;;;;;3.13;2.67;;;14.10;45.80;;;;;;10460300;28;20744;-67
2021/11/01 12:33:53;;;;;;;2.47;1.97;;;14.20;45.00;;;;;;10457066;28;20224;-67
2021/11/01 12:39:08;;;;;;;2.77;2.57;;;14.30;44.70;;;;;;10466244;28;20239;-67
2021/11/01 13:00:22;;;;;;;5.07;3.43;;;14.20;44.70;;;;;;10455300;28;20236;-67
2021/11/01 13:05:27;;;;;;;4.73;4.03;;;14.10;44.10;;;;;;10456341;28;20235;-68
2021/11/01 13:10:37;;;;;;;3.90;3.20;;;14.10;44.20;;;;;;10464820;28;20225;-67
2021/11/01 13:20:57;;;;;;;3.57;2.37;;;14.00;44.30;;;;;;10464262;28;20229;-67
2021/11/01 13:36:42;;;;;;;2.87;2.23;;;13.90;44.40;;;;;;10458512;28;20237;-68
2021/11/01 13:41:48;;;;;;;2.90;2.70;;;13.90;44.20;;;;;;10461685;28;20233;-67
2021/11/01 13:46:53;;;;;;;8.77;7.80;;;13.80;44.80;;;;;;10457071;28;20857;-67
2021/11/01 13:52:09;;;;;;;7.27;6.67;;;13.80;44.60;;;;;;10457898;28;20282;-67
2021/11/01 13:57:16;;;;;;;4.30;3.90;;;13.80;45.40;;;;;;10458215;28;20224;-68
2021/11/01 14:13:11;;;;;;;3.33;2.50;;;13.70;44.40;;;;;;10455324;28;20227;-68
2021/11/01 15:01:37;;;;;;;1.57;1.47;;;13.40;44.30;;;;;;10458517;28;20221;-69
2021/11/01 15:17:34;;;;;;;2.27;1.23;;;13.40;44.40;;;;;;10462756;28;20232;-67
2021/11/01 15:28:11;;;;;;;1.40;1.30;;;13.40;44.30;;;;;;10462923;28;20228;-67
2021/11/01 16:16:43;;;;;;;4.30;3.90;;;13.30;45.50;;;;;;10421328;28;20231;-68
2021/11/01 16:21:47;;;;;;;3.87;3.57;;;13.30;45.00;;;;;;10425476;28;20229;-68
2021/11/01 16:26:51;;;;;;;7.70;6.90;;;13.20;44.80;;;;;;10432118;28;20220;-68
2021/11/01 16:32:02;;;;;;;6.70;6.07;;;13.30;44.80;;;;;;10417242;28;20233;-68
2021/11/01 16:37:21;;;;;;;10.57;9.47;;;13.20;45.20;;;;;;10426737;28;20214;-68
2021/11/01 16:42:30;;;;;;;6.93;6.23;;;13.30;44.80;;;;;;10419912;28;20225;-68
2021/11/01 16:47:35;;;;;;;3.07;2.70;;;13.20;44.80;;;;;;10429465;28;20226;-71
2021/11/01 16:52:38;;;;;;;2.20;2.00;;;13.20;44.80;;;;;;10410665;28;20249;-71
2021/11/01 16:57:45;;;;;;;2.40;2.17;;;13.10;44.40;;;;;;10392349;28;20237;-71
2021/11/01 17:03:08;;;;;;;2.40;2.10;;;13.10;44.40;;;;;;10394680;28;20276;-71
2021/11/01 17:24:31;;;;;;;2.47;1.83;;;12.70;45.00;;;;;;10354479;28;20233;-71
2021/11/01 17:30:05;;;;;;;2.13;1.93;;;12.50;44.70;;;;;;10349512;28;20230;-71
2021/11/01 17:35:23;;;;;;;2.70;2.50;;;12.50;45.10;;;;;;10355700;28;20605;-72
2021/11/01 18:40:01;;;;;;;2.50;2.40;;;12.00;45.60;;;;;;10357126;28;20237;-71
2021/11/01 18:45:13;;;;;;;3.93;3.40;;;12.00;45.70;;;;;;10352589;28;20226;-71
2021/11/01 18:55:39;;;;;;;3.17;2.87;;;12.00;45.20;;;;;;10359201;28;20616;-71
2021/11/01 19:00:43;;;;;;;1.90;1.80;;;12.00;45.60;;;;;;10351177;28;20616;-71
2021/11/01 19:05:52;;;;;;;2.13;1.97;;;12.00;45.30;;;;;;10363148;28;20261;-71
2021/11/01 20:05:07;;;;;;;5.40;4.10;;;12.20;45.30;;;;;;10356111;28;20577;-71
2021/11/01 20:10:37;;;;;;;3.50;2.80;;;12.20;45.30;;;;;;10355526;28;20667;-71
2021/11/01 21:25:46;;;;;;;1.93;1.80;;;12.20;45.20;;;;;;10346283;28;20219;-71
2021/11/01 21:30:50;;;;;;;2.77;2.03;;;12.20;45.10;;;;;;10340246;28;20234;-71
2021/11/01 21:35:55;;;;;;;3.20;2.90;;;12.10;45.20;;;;;;10335248;28;20637;-71
2021/11/01 21:40:58;;;;;;;2.60;2.40;;;12.10;45.40;;;;;;10343092;28;21047;-71
2021/11/01 21:46:01;;;;;;;2.67;2.20;;;12.10;45.20;;;;;;10335895;28;20222;-71
2021/11/01 21:51:06;;;;;;;2.73;2.27;;;12.10;45.40;;;;;;10343237;28;20214;-71
2021/11/01 21:56:12;;;;;;;2.37;2.10;;;12.10;45.50;;;;;;10333119;28;20232;-71
2021/11/01 22:01:41;;;;;;;2.20;2.10;;;12.20;45.40;;;;;;10340316;28;20226;-71
2021/11/01 22:17:34;;;;;;;3.00;2.03;;;12.20;45.10;;;;;;10327790;28;20230;-71
2021/11/01 22:22:48;;;;;;;2.20;1.60;;;12.20;45.00;;;;;;10337521;28;20728;-71
2021/11/01 22:33:52;;;;;;;2.00;1.90;;;12.10;45.10;;;;;;10339375;28;20222;-71
2021/11/01 22:39:10;;;;;;;2.37;1.83;;;12.10;45.20;;;;;;10336634;28;20235;-71
2021/11/01 23:00:20;;;;;;;1.23;1.23;;;12.10;45.30;;;;;;10335546;28;20218;-71
2021/11/01 23:05:43;;;;;;;1.70;1.60;;;12.10;45.40;;;;;;10337949;28;20238;-71
2021/11/01 23:32:13;;;;;;;1.60;1.50;;;12.00;45.60;;;;;;10368339;28;20221;-72
2021/11/01 23:37:17;;;;;;;1.43;1.37;;;12.00;45.40;;;;;;10388661;28;20241;-71
2021/11/01 23:42:22;;;;;;;1.40;1.10;;;12.00;45.50;;;;;;10390582;28;20233;-71
2021/11/01 23:47:25;;;;;;;1.27;1.17;;;12.00;45.70;;;;;;10390727;28;20232;-71
2021/11/01 23:52:35;;;;;;;1.00;1.00;;;12.00;45.50;;;;;;10398989;28;20229;-71
2021/11/01 23:57:40;;;;;;;1.30;1.20;;;12.00;45.50;;;;;;10389753;28;20225;-72
